Barbourville, Kentucky
Current Conditions -  °F | °C
As of 1:53 PM on Thursday 27 Nov 2014 (Local Time) from KLOZ Reporting Station
Overcast Overcast  
Wind Chill: 21°   Ceiling: 2000
Heat Index: 31°   Visibility: 10mi
Dew Point: 23°   Wind: 14mph
Humidity: 72%   Direction: 300°WNW
Pressure: 30.3"   Gusts: 23mph
Location:  36.87°N, 83.89°W
Report Text: KLOZ 271853Z AUTO 30012G20KT 10SM OVC020 M01/M05 A3030 RMK AO2 SLP270 T10061050
Loading
Personal Weather Stations






























Interactive Weather Map New forecast layout! Learn more

10-Day Weather Forecast

Advertisements
Track Severe Weather on mobile